Van Meter, Iowa
Current Conditions -  °F | °C
As of 5:54 PM on Friday 24 Oct 2014 (Local Time) from KDSM Reporting Station
Haze Haze  
Wind Chill: 66°   Ceiling: 30000
Heat Index: 66°   Visibility: 6mi
Dew Point: 60°   Wind: 5mph
Humidity: 81%   Direction: 210°SSW
Pressure: 29.9"   Gusts: NA
Location:  41.53°N, 93.95°W
Report Text: KDSM 242254Z 21004KT 6SM HZ FEW220 OVC300 19/16 A2990 RMK AO2 SLP123 T01890156
Loading
Personal Weather Stations






























Interactive Weather Map
Tropical Storm Tracking
New forecast layout! Learn more

10-Day Weather Forecast

Advertisements
Track Severe Weather on mobile